sensor_id;sensor_type;location;lat;lon;timestamp;P1;durP1;ratioP1;P2;durP2;ratioP2
25153;SDS011;47555;51.038;6.280;2023-02-11T00:03:50;32.50;;;16.00;;
25153;SDS011;47555;51.038;6.280;2023-02-11T00:06:16;30.02;;;15.38;;
25153;SDS011;47555;51.038;6.280;2023-02-11T00:08:42;32.42;;;16.58;;
25153;SDS011;47555;51.038;6.280;2023-02-11T00:11:09;34.78;;;15.27;;
25153;SDS011;47555;51.038;6.280;2023-02-11T00:13:40;32.50;;;15.40;;
25153;SDS011;47555;51.038;6.280;2023-02-11T00:16:07;28.65;;;15.15;;
25153;SDS011;47555;51.038;6.280;2023-02-11T00:18:40;32.58;;;15.45;;
25153;SDS011;47555;51.038;6.280;2023-02-11T00:21:10;30.08;;;15.38;;
25153;SDS011;47555;51.038;6.280;2023-02-11T00:23:41;33.58;;;14.98;;
25153;SDS011;47555;51.038;6.280;2023-02-11T00:26:24;27.50;;;14.90;;
25153;SDS011;47555;51.038;6.280;2023-02-11T00:28:51;33.47;;;16.05;;
25153;SDS011;47555;51.038;6.280;2023-02-11T00:31:17;32.13;;;15.63;;
25153;SDS011;47555;51.038;6.280;2023-02-11T00:33:44;34.03;;;15.82;;
25153;SDS011;47555;51.038;6.280;2023-02-11T00:36:12;28.95;;;14.75;;
25153;SDS011;47555;51.038;6.280;2023-02-11T00:38:41;30.55;;;15.05;;
25153;SDS011;47555;51.038;6.280;2023-02-11T00:41:11;34.63;;;15.82;;
25153;SDS011;47555;51.038;6.280;2023-02-11T00:43:37;32.47;;;15.52;;
25153;SDS011;47555;51.038;6.280;2023-02-11T00:46:03;33.92;;;17.30;;
25153;SDS011;47555;51.038;6.280;2023-02-11T00:48:28;38.03;;;17.95;;
25153;SDS011;47555;51.038;6.280;2023-02-11T00:50:55;35.08;;;16.58;;
25153;SDS011;47555;51.038;6.280;2023-02-11T00:53:20;35.88;;;16.23;;
25153;SDS011;47555;51.038;6.280;2023-02-11T00:55:46;32.97;;;17.13;;
25153;SDS011;47555;51.038;6.280;2023-02-11T00:58:11;31.45;;;16.00;;
25153;SDS011;47555;51.038;6.280;2023-02-11T01:00:37;35.15;;;17.35;;
25153;SDS011;47555;51.038;6.280;2023-02-11T01:03:02;40.35;;;17.52;;
25153;SDS011;47555;51.038;6.280;2023-02-11T01:05:28;38.72;;;16.63;;
25153;SDS011;47555;51.038;6.280;2023-02-11T01:07:53;35.08;;;15.95;;
25153;SDS011;47555;51.038;6.280;2023-02-11T01:10:22;37.17;;;17.23;;
25153;SDS011;47555;51.038;6.280;2023-02-11T01:12:48;43.78;;;18.35;;
25153;SDS011;47555;51.038;6.280;2023-02-11T01:15:14;33.90;;;17.77;;
25153;SDS011;47555;51.038;6.280;2023-02-11T01:17:40;34.85;;;17.70;;
25153;SDS011;47555;51.038;6.280;2023-02-11T01:20:07;35.92;;;17.90;;
25153;SDS011;47555;51.038;6.280;2023-02-11T01:22:38;36.13;;;18.02;;
25153;SDS011;47555;51.038;6.280;2023-02-11T01:25:04;40.97;;;18.10;;
25153;SDS011;47555;51.038;6.280;2023-02-11T01:27:30;37.42;;;17.50;;
25153;SDS011;47555;51.038;6.280;2023-02-11T01:29:56;38.45;;;17.63;;
25153;SDS011;47555;51.038;6.280;2023-02-11T01:32:22;39.75;;;17.48;;
25153;SDS011;47555;51.038;6.280;2023-02-11T01:34:47;35.15;;;17.88;;
25153;SDS011;47555;51.038;6.280;2023-02-11T01:37:13;37.45;;;17.95;;
25153;SDS011;47555;51.038;6.280;2023-02-11T01:39:39;37.95;;;17.70;;
25153;SDS011;47555;51.038;6.280;2023-02-11T01:42:04;37.97;;;16.70;;
25153;SDS011;47555;51.038;6.280;2023-02-11T01:44:32;31.23;;;15.70;;
25153;SDS011;47555;51.038;6.280;2023-02-11T01:46:59;35.05;;;16.40;;
25153;SDS011;47555;51.038;6.280;2023-02-11T01:49:32;33.78;;;16.00;;
25153;SDS011;47555;51.038;6.280;2023-02-11T01:52:01;37.55;;;15.13;;
25153;SDS011;47555;51.038;6.280;2023-02-11T01:54:37;35.28;;;15.70;;
25153;SDS011;47555;51.038;6.280;2023-02-11T01:57:25;32.88;;;15.45;;
25153;SDS011;47555;51.038;6.280;2023-02-11T02:02:25;36.75;;;16.40;;
25153;SDS011;47555;51.038;6.280;2023-02-11T02:05:09;39.20;;;16.00;;
25153;SDS011;47555;51.038;6.280;2023-02-11T02:10:30;32.17;;;15.55;;
25153;SDS011;47555;51.038;6.280;2023-02-11T02:12:59;37.33;;;16.27;;
25153;SDS011;47555;51.038;6.280;2023-02-11T02:15:26;29.67;;;15.48;;
25153;SDS011;47555;51.038;6.280;2023-02-11T02:17:58;32.47;;;15.15;;
25153;SDS011;47555;51.038;6.280;2023-02-11T02:23:24;39.67;;;16.05;;
25153;SDS011;47555;51.038;6.280;2023-02-11T02:28:45;42.67;;;19.65;;
25153;SDS011;47555;51.038;6.280;2023-02-11T02:31:35;41.20;;;18.88;;
25153;SDS011;47555;51.038;6.280;2023-02-11T02:34:35;43.45;;;18.98;;
25153;SDS011;47555;51.038;6.280;2023-02-11T02:37:15;37.33;;;17.90;;
25153;SDS011;47555;51.038;6.280;2023-02-11T02:39:45;41.95;;;17.55;;
25153;SDS011;47555;51.038;6.280;2023-02-11T02:42:14;37.85;;;16.67;;
25153;SDS011;47555;51.038;6.280;2023-02-11T02:44:46;35.42;;;17.40;;
25153;SDS011;47555;51.038;6.280;2023-02-11T02:47:13;33.93;;;17.37;;
25153;SDS011;47555;51.038;6.280;2023-02-11T02:49:38;39.20;;;16.15;;
25153;SDS011;47555;51.038;6.280;2023-02-11T02:57:55;36.85;;;16.63;;
25153;SDS011;47555;51.038;6.280;2023-02-11T03:03:28;36.22;;;15.55;;
25153;SDS011;47555;51.038;6.280;2023-02-11T03:06:02;33.00;;;16.73;;
25153;SDS011;47555;51.038;6.280;2023-02-11T03:08:41;36.35;;;15.93;;
25153;SDS011;47555;51.038;6.280;2023-02-11T03:11:10;38.83;;;16.13;;
25153;SDS011;47555;51.038;6.280;2023-02-11T03:13:38;41.28;;;17.95;;
25153;SDS011;47555;51.038;6.280;2023-02-11T03:16:09;34.22;;;15.68;;
25153;SDS011;47555;51.038;6.280;2023-02-11T03:18:41;33.97;;;14.93;;
25153;SDS011;47555;51.038;6.280;2023-02-11T03:21:11;39.63;;;15.38;;
25153;SDS011;47555;51.038;6.280;2023-02-11T03:23:41;32.20;;;16.20;;
25153;SDS011;47555;51.038;6.280;2023-02-11T03:26:29;33.58;;;16.00;;
25153;SDS011;47555;51.038;6.280;2023-02-11T03:29:23;33.00;;;14.37;;
25153;SDS011;47555;51.038;6.280;2023-02-11T03:32:13;36.45;;;15.32;;
25153;SDS011;47555;51.038;6.280;2023-02-11T03:37:44;33.58;;;14.55;;
25153;SDS011;47555;51.038;6.280;2023-02-11T03:40:26;29.77;;;14.68;;
25153;SDS011;47555;51.038;6.280;2023-02-11T03:42:59;41.05;;;15.73;;
25153;SDS011;47555;51.038;6.280;2023-02-11T03:45:29;30.10;;;14.50;;
25153;SDS011;47555;51.038;6.280;2023-02-11T03:47:57;34.53;;;16.45;;
25153;SDS011;47555;51.038;6.280;2023-02-11T03:50:26;34.50;;;15.65;;
25153;SDS011;47555;51.038;6.280;2023-02-11T03:52:56;34.60;;;15.13;;
25153;SDS011;47555;51.038;6.280;2023-02-11T03:55:24;40.28;;;16.05;;
25153;SDS011;47555;51.038;6.280;2023-02-11T03:57:51;36.65;;;15.70;;
25153;SDS011;47555;51.038;6.280;2023-02-11T04:00:16;35.10;;;15.63;;
25153;SDS011;47555;51.038;6.280;2023-02-11T04:02:42;33.75;;;15.20;;
25153;SDS011;47555;51.038;6.280;2023-02-11T04:05:09;34.17;;;15.18;;
25153;SDS011;47555;51.038;6.280;2023-02-11T04:07:37;30.88;;;14.43;;
25153;SDS011;47555;51.038;6.280;2023-02-11T04:10:02;36.67;;;16.83;;
25153;SDS011;47555;51.038;6.280;2023-02-11T04:12:28;36.55;;;15.82;;
25153;SDS011;47555;51.038;6.280;2023-02-11T04:14:54;37.92;;;16.65;;
25153;SDS011;47555;51.038;6.280;2023-02-11T04:17:19;33.25;;;16.30;;
25153;SDS011;47555;51.038;6.280;2023-02-11T04:19:45;35.80;;;15.80;;
25153;SDS011;47555;51.038;6.280;2023-02-11T04:22:10;34.83;;;16.30;;
25153;SDS011;47555;51.038;6.280;2023-02-11T04:24:36;32.33;;;14.20;;
25153;SDS011;47555;51.038;6.280;2023-02-11T04:27:02;33.35;;;14.75;;
25153;SDS011;47555;51.038;6.280;2023-02-11T04:29:27;34.95;;;14.55;;
25153;SDS011;47555;51.038;6.280;2023-02-11T04:31:53;40.28;;;15.68;;
25153;SDS011;47555;51.038;6.280;2023-02-11T04:34:19;31.10;;;14.57;;
25153;SDS011;47555;51.038;6.280;2023-02-11T04:36:46;34.92;;;15.25;;
25153;SDS011;47555;51.038;6.280;2023-02-11T04:39:11;38.08;;;15.93;;
25153;SDS011;47555;51.038;6.280;2023-02-11T04:41:37;35.10;;;15.27;;
25153;SDS011;47555;51.038;6.280;2023-02-11T04:44:03;33.10;;;15.60;;
25153;SDS011;47555;51.038;6.280;2023-02-11T04:46:28;38.45;;;16.40;;
25153;SDS011;47555;51.038;6.280;2023-02-11T04:48:54;33.13;;;15.57;;
25153;SDS011;47555;51.038;6.280;2023-02-11T04:51:20;34.22;;;16.70;;
25153;SDS011;47555;51.038;6.280;2023-02-11T04:53:46;31.25;;;14.55;;
25153;SDS011;47555;51.038;6.280;2023-02-11T04:56:12;36.80;;;16.00;;
25153;SDS011;47555;51.038;6.280;2023-02-11T04:58:37;39.60;;;16.23;;
25153;SDS011;47555;51.038;6.280;2023-02-11T05:01:06;38.88;;;16.55;;
25153;SDS011;47555;51.038;6.280;2023-02-11T05:03:33;40.97;;;17.60;;
25153;SDS011;47555;51.038;6.280;2023-02-11T05:05:59;49.85;;;17.10;;
25153;SDS011;47555;51.038;6.280;2023-02-11T05:08:24;36.45;;;16.38;;
25153;SDS011;47555;51.038;6.280;2023-02-11T05:10:50;40.13;;;17.48;;
25153;SDS011;47555;51.038;6.280;2023-02-11T05:13:15;44.60;;;19.25;;
25153;SDS011;47555;51.038;6.280;2023-02-11T05:15:41;39.08;;;18.35;;
25153;SDS011;47555;51.038;6.280;2023-02-11T05:18:06;44.90;;;18.30;;
25153;SDS011;47555;51.038;6.280;2023-02-11T05:20:32;44.30;;;19.35;;
25153;SDS011;47555;51.038;6.280;2023-02-11T05:22:58;41.65;;;18.45;;
25153;SDS011;47555;51.038;6.280;2023-02-11T05:25:23;46.50;;;20.23;;
25153;SDS011;47555;51.038;6.280;2023-02-11T05:27:49;46.40;;;20.55;;
25153;SDS011;47555;51.038;6.280;2023-02-11T05:30:14;43.42;;;18.65;;
25153;SDS011;47555;51.038;6.280;2023-02-11T05:32:40;42.22;;;19.33;;
25153;SDS011;47555;51.038;6.280;2023-02-11T05:35:06;47.70;;;19.63;;
25153;SDS011;47555;51.038;6.280;2023-02-11T05:37:32;50.30;;;19.35;;
25153;SDS011;47555;51.038;6.280;2023-02-11T05:39:58;43.15;;;19.67;;
25153;SDS011;47555;51.038;6.280;2023-02-11T05:42:23;47.45;;;20.40;;
25153;SDS011;47555;51.038;6.280;2023-02-11T05:44:49;44.35;;;18.92;;
25153;SDS011;47555;51.038;6.280;2023-02-11T05:47:14;44.17;;;18.85;;
25153;SDS011;47555;51.038;6.280;2023-02-11T05:49:40;42.97;;;18.95;;
25153;SDS011;47555;51.038;6.280;2023-02-11T05:52:05;42.63;;;19.30;;
25153;SDS011;47555;51.038;6.280;2023-02-11T05:54:31;39.58;;;16.77;;
25153;SDS011;47555;51.038;6.280;2023-02-11T05:56:56;47.15;;;18.30;;
25153;SDS011;47555;51.038;6.280;2023-02-11T05:59:22;45.42;;;18.20;;
25153;SDS011;47555;51.038;6.280;2023-02-11T06:01:47;44.08;;;18.35;;
25153;SDS011;47555;51.038;6.280;2023-02-11T06:04:13;40.10;;;19.20;;
25153;SDS011;47555;51.038;6.280;2023-02-11T06:06:38;44.78;;;19.40;;
25153;SDS011;47555;51.038;6.280;2023-02-11T06:09:04;49.97;;;20.17;;
25153;SDS011;47555;51.038;6.280;2023-02-11T06:11:29;43.47;;;19.30;;
25153;SDS011;47555;51.038;6.280;2023-02-11T06:13:55;47.50;;;19.13;;
25153;SDS011;47555;51.038;6.280;2023-02-11T06:16:21;43.20;;;18.50;;
25153;SDS011;47555;51.038;6.280;2023-02-11T06:18:46;46.40;;;18.98;;
25153;SDS011;47555;51.038;6.280;2023-02-11T06:21:12;44.55;;;18.75;;
25153;SDS011;47555;51.038;6.280;2023-02-11T06:23:37;45.38;;;19.05;;
25153;SDS011;47555;51.038;6.280;2023-02-11T06:26:06;43.22;;;18.48;;
25153;SDS011;47555;51.038;6.280;2023-02-11T06:28:33;44.97;;;18.67;;
25153;SDS011;47555;51.038;6.280;2023-02-11T06:31:05;37.03;;;17.90;;
25153;SDS011;47555;51.038;6.280;2023-02-11T06:33:32;48.10;;;18.42;;
25153;SDS011;47555;51.038;6.280;2023-02-11T06:35:58;44.78;;;19.27;;
25153;SDS011;47555;51.038;6.280;2023-02-11T06:38:24;48.50;;;18.77;;
25153;SDS011;47555;51.038;6.280;2023-02-11T06:40:49;51.55;;;19.10;;
25153;SDS011;47555;51.038;6.280;2023-02-11T06:43:15;48.72;;;19.77;;
25153;SDS011;47555;51.038;6.280;2023-02-11T06:45:41;45.78;;;19.45;;
25153;SDS011;47555;51.038;6.280;2023-02-11T06:48:06;51.95;;;20.08;;
25153;SDS011;47555;51.038;6.280;2023-02-11T06:50:32;49.50;;;20.13;;
25153;SDS011;47555;51.038;6.280;2023-02-11T06:52:58;42.60;;;18.25;;
25153;SDS011;47555;51.038;6.280;2023-02-11T06:55:23;48.53;;;18.13;;
25153;SDS011;47555;51.038;6.280;2023-02-11T06:57:49;47.95;;;19.02;;
25153;SDS011;47555;51.038;6.280;2023-02-11T07:00:15;44.53;;;18.48;;
25153;SDS011;47555;51.038;6.280;2023-02-11T07:02:41;50.00;;;19.38;;
25153;SDS011;47555;51.038;6.280;2023-02-11T07:05:06;48.85;;;21.13;;
25153;SDS011;47555;51.038;6.280;2023-02-11T07:07:32;48.75;;;19.67;;
25153;SDS011;47555;51.038;6.280;2023-02-11T07:09:58;49.53;;;19.00;;
25153;SDS011;47555;51.038;6.280;2023-02-11T07:12:23;48.17;;;18.83;;
25153;SDS011;47555;51.038;6.280;2023-02-11T07:14:49;52.25;;;20.75;;
25153;SDS011;47555;51.038;6.280;2023-02-11T07:17:15;50.83;;;20.63;;
25153;SDS011;47555;51.038;6.280;2023-02-11T07:19:40;50.42;;;18.85;;
25153;SDS011;47555;51.038;6.280;2023-02-11T07:22:06;57.00;;;20.83;;
25153;SDS011;47555;51.038;6.280;2023-02-11T07:24:32;47.72;;;19.17;;
25153;SDS011;47555;51.038;6.280;2023-02-11T07:26:57;51.45;;;20.13;;
25153;SDS011;47555;51.038;6.280;2023-02-11T07:29:23;49.47;;;18.63;;
25153;SDS011;47555;51.038;6.280;2023-02-11T07:31:48;49.72;;;19.63;;
25153;SDS011;47555;51.038;6.280;2023-02-11T07:34:14;53.55;;;19.05;;
25153;SDS011;47555;51.038;6.280;2023-02-11T07:36:39;52.47;;;19.30;;
25153;SDS011;47555;51.038;6.280;2023-02-11T07:39:07;51.97;;;19.80;;
25153;SDS011;47555;51.038;6.280;2023-02-11T07:41:33;57.08;;;20.67;;
25153;SDS011;47555;51.038;6.280;2023-02-11T07:44:00;58.47;;;21.88;;
25153;SDS011;47555;51.038;6.280;2023-02-11T07:46:27;56.40;;;20.88;;
25153;SDS011;47555;51.038;6.280;2023-02-11T07:48:52;48.58;;;19.42;;
25153;SDS011;47555;51.038;6.280;2023-02-11T07:51:23;55.47;;;19.42;;
25153;SDS011;47555;51.038;6.280;2023-02-11T07:53:51;53.75;;;19.17;;
25153;SDS011;47555;51.038;6.280;2023-02-11T07:56:18;54.10;;;20.48;;
25153;SDS011;47555;51.038;6.280;2023-02-11T07:58:44;61.90;;;21.67;;
25153;SDS011;47555;51.038;6.280;2023-02-11T08:01:14;52.47;;;20.15;;
25153;SDS011;47555;51.038;6.280;2023-02-11T08:03:52;52.88;;;20.20;;
25153;SDS011;47555;51.038;6.280;2023-02-11T08:06:20;58.40;;;20.77;;
25153;SDS011;47555;51.038;6.280;2023-02-11T08:08:47;55.13;;;20.17;;
25153;SDS011;47555;51.038;6.280;2023-02-11T08:11:14;61.60;;;20.58;;
25153;SDS011;47555;51.038;6.280;2023-02-11T08:13:44;58.08;;;20.20;;
25153;SDS011;47555;51.038;6.280;2023-02-11T08:16:17;55.92;;;20.58;;
25153;SDS011;47555;51.038;6.280;2023-02-11T08:18:45;60.92;;;21.00;;
25153;SDS011;47555;51.038;6.280;2023-02-11T08:21:10;61.55;;;22.15;;
25153;SDS011;47555;51.038;6.280;2023-02-11T08:23:37;54.80;;;20.67;;
25153;SDS011;47555;51.038;6.280;2023-02-11T08:26:04;62.58;;;21.08;;
25153;SDS011;47555;51.038;6.280;2023-02-11T08:28:33;61.35;;;22.35;;
25153;SDS011;47555;51.038;6.280;2023-02-11T08:31:04;59.78;;;20.88;;
25153;SDS011;47555;51.038;6.280;2023-02-11T08:33:30;60.33;;;21.05;;
25153;SDS011;47555;51.038;6.280;2023-02-11T08:35:56;63.83;;;20.90;;
25153;SDS011;47555;51.038;6.280;2023-02-11T08:38:22;52.30;;;20.50;;
25153;SDS011;47555;51.038;6.280;2023-02-11T08:40:48;57.95;;;19.30;;
25153;SDS011;47555;51.038;6.280;2023-02-11T08:43:13;61.22;;;21.65;;
25153;SDS011;47555;51.038;6.280;2023-02-11T08:45:39;61.20;;;20.10;;
25153;SDS011;47555;51.038;6.280;2023-02-11T08:48:04;58.03;;;20.60;;
25153;SDS011;47555;51.038;6.280;2023-02-11T08:50:30;57.90;;;20.55;;
25153;SDS011;47555;51.038;6.280;2023-02-11T08:52:56;58.53;;;21.10;;
25153;SDS011;47555;51.038;6.280;2023-02-11T08:55:21;55.97;;;20.73;;
25153;SDS011;47555;51.038;6.280;2023-02-11T08:57:47;60.53;;;21.77;;
25153;SDS011;47555;51.038;6.280;2023-02-11T09:00:13;53.10;;;20.88;;
25153;SDS011;47555;51.038;6.280;2023-02-11T09:02:40;54.08;;;18.40;;
25153;SDS011;47555;51.038;6.280;2023-02-11T09:05:06;56.72;;;20.65;;
25153;SDS011;47555;51.038;6.280;2023-02-11T09:07:32;57.95;;;20.88;;
25153;SDS011;47555;51.038;6.280;2023-02-11T09:09:57;50.13;;;18.70;;
25153;SDS011;47555;51.038;6.280;2023-02-11T09:12:23;60.45;;;21.15;;
25153;SDS011;47555;51.038;6.280;2023-02-11T09:14:48;56.42;;;20.20;;
25153;SDS011;47555;51.038;6.280;2023-02-11T09:17:14;54.67;;;19.67;;
25153;SDS011;47555;51.038;6.280;2023-02-11T09:19:39;54.95;;;21.17;;
25153;SDS011;47555;51.038;6.280;2023-02-11T09:22:05;60.47;;;20.23;;
25153;SDS011;47555;51.038;6.280;2023-02-11T09:24:30;49.47;;;20.45;;
25153;SDS011;47555;51.038;6.280;2023-02-11T09:26:56;62.70;;;22.02;;
25153;SDS011;47555;51.038;6.280;2023-02-11T09:29:21;49.90;;;19.25;;
25153;SDS011;47555;51.038;6.280;2023-02-11T09:31:47;53.50;;;18.52;;
25153;SDS011;47555;51.038;6.280;2023-02-11T09:34:13;54.03;;;19.98;;
25153;SDS011;47555;51.038;6.280;2023-02-11T09:36:39;60.78;;;19.77;;
25153;SDS011;47555;51.038;6.280;2023-02-11T09:39:06;61.97;;;20.75;;
25153;SDS011;47555;51.038;6.280;2023-02-11T09:44:07;56.25;;;20.48;;
25153;SDS011;47555;51.038;6.280;2023-02-11T09:46:40;57.45;;;19.98;;
25153;SDS011;47555;51.038;6.280;2023-02-11T09:49:09;56.67;;;21.00;;
25153;SDS011;47555;51.038;6.280;2023-02-11T09:51:45;59.53;;;20.77;;
25153;SDS011;47555;51.038;6.280;2023-02-11T09:57:01;51.67;;;18.50;;
25153;SDS011;47555;51.038;6.280;2023-02-11T09:59:27;53.72;;;18.52;;
25153;SDS011;47555;51.038;6.280;2023-02-11T10:01:54;64.45;;;21.60;;
25153;SDS011;47555;51.038;6.280;2023-02-11T10:05:28;50.58;;;19.48;;
25153;SDS011;47555;51.038;6.280;2023-02-11T10:16:04;61.97;;;21.13;;
25153;SDS011;47555;51.038;6.280;2023-02-11T10:18:37;63.13;;;21.95;;
25153;SDS011;47555;51.038;6.280;2023-02-11T10:23:45;59.10;;;21.00;;
25153;SDS011;47555;51.038;6.280;2023-02-11T10:26:16;68.03;;;22.95;;
25153;SDS011;47555;51.038;6.280;2023-02-11T10:28:46;55.47;;;21.77;;
25153;SDS011;47555;51.038;6.280;2023-02-11T10:33:44;53.38;;;20.00;;
25153;SDS011;47555;51.038;6.280;2023-02-11T10:36:17;67.05;;;21.75;;
25153;SDS011;47555;51.038;6.280;2023-02-11T10:38:44;59.53;;;21.85;;
25153;SDS011;47555;51.038;6.280;2023-02-11T10:41:16;72.72;;;23.05;;
25153;SDS011;47555;51.038;6.280;2023-02-11T10:43:45;60.45;;;21.88;;
25153;SDS011;47555;51.038;6.280;2023-02-11T10:46:15;69.43;;;22.50;;
25153;SDS011;47555;51.038;6.280;2023-02-11T10:48:44;62.80;;;20.33;;
25153;SDS011;47555;51.038;6.280;2023-02-11T10:51:19;62.63;;;22.40;;
25153;SDS011;47555;51.038;6.280;2023-02-11T10:54:05;64.85;;;22.50;;
25153;SDS011;47555;51.038;6.280;2023-02-11T10:56:45;58.50;;;21.63;;
25153;SDS011;47555;51.038;6.280;2023-02-11T10:59:29;50.20;;;19.42;;
25153;SDS011;47555;51.038;6.280;2023-02-11T11:02:05;62.20;;;20.58;;
25153;SDS011;47555;51.038;6.280;2023-02-11T11:04:47;59.05;;;22.25;;
25153;SDS011;47555;51.038;6.280;2023-02-11T11:09:53;64.93;;;23.02;;
25153;SDS011;47555;51.038;6.280;2023-02-11T11:12:24;58.42;;;21.23;;
25153;SDS011;47555;51.038;6.280;2023-02-11T11:14:57;60.58;;;21.52;;
25153;SDS011;47555;51.038;6.280;2023-02-11T11:17:37;55.90;;;22.02;;
25153;SDS011;47555;51.038;6.280;2023-02-11T11:22:49;62.83;;;21.75;;
25153;SDS011;47555;51.038;6.280;2023-02-11T11:25:27;62.13;;;22.50;;
25153;SDS011;47555;51.038;6.280;2023-02-11T11:27:55;58.90;;;22.77;;
25153;SDS011;47555;51.038;6.280;2023-02-11T11:30:24;67.68;;;24.05;;
25153;SDS011;47555;51.038;6.280;2023-02-11T11:32:56;64.95;;;23.10;;
25153;SDS011;47555;51.038;6.280;2023-02-11T11:35:24;70.60;;;24.85;;
25153;SDS011;47555;51.038;6.280;2023-02-11T11:37:59;57.15;;;21.83;;
25153;SDS011;47555;51.038;6.280;2023-02-11T11:40:28;65.22;;;23.23;;
25153;SDS011;47555;51.038;6.280;2023-02-11T11:45:55;58.05;;;22.58;;
25153;SDS011;47555;51.038;6.280;2023-02-11T11:48:24;67.85;;;22.83;;
25153;SDS011;47555;51.038;6.280;2023-02-11T11:51:07;65.18;;;22.35;;
25153;SDS011;47555;51.038;6.280;2023-02-11T11:53:47;60.45;;;23.30;;
25153;SDS011;47555;51.038;6.280;2023-02-11T11:56:24;69.53;;;23.15;;
25153;SDS011;47555;51.038;6.280;2023-02-11T11:58:52;62.45;;;23.30;;
25153;SDS011;47555;51.038;6.280;2023-02-11T12:04:28;59.67;;;23.42;;
25153;SDS011;47555;51.038;6.280;2023-02-11T12:07:46;67.32;;;24.30;;
25153;SDS011;47555;51.038;6.280;2023-02-11T12:27:13;58.65;;;22.20;;
25153;SDS011;47555;51.038;6.280;2023-02-11T12:30:08;68.47;;;23.00;;
25153;SDS011;47555;51.038;6.280;2023-02-11T12:44:16;63.53;;;23.42;;
25153;SDS011;47555;51.038;6.280;2023-02-11T12:49:40;79.88;;;25.85;;
25153;SDS011;47555;51.038;6.280;2023-02-11T12:52:18;71.35;;;21.92;;
25153;SDS011;47555;51.038;6.280;2023-02-11T12:54:55;73.53;;;25.75;;
25153;SDS011;47555;51.038;6.280;2023-02-11T12:57:27;67.68;;;23.92;;
25153;SDS011;47555;51.038;6.280;2023-02-11T13:00:05;65.75;;;22.73;;
25153;SDS011;47555;51.038;6.280;2023-02-11T13:02:52;69.38;;;23.67;;
25153;SDS011;47555;51.038;6.280;2023-02-11T13:05:24;63.90;;;23.98;;
25153;SDS011;47555;51.038;6.280;2023-02-11T13:10:31;71.97;;;23.58;;
25153;SDS011;47555;51.038;6.280;2023-02-11T13:13:01;70.65;;;23.75;;
25153;SDS011;47555;51.038;6.280;2023-02-11T13:15:41;66.45;;;23.58;;
25153;SDS011;47555;51.038;6.280;2023-02-11T13:23:40;73.03;;;24.15;;
25153;SDS011;47555;51.038;6.280;2023-02-11T13:29:57;69.63;;;24.17;;
25153;SDS011;47555;51.038;6.280;2023-02-11T13:35:40;77.07;;;25.17;;
25153;SDS011;47555;51.038;6.280;2023-02-11T13:38:22;75.22;;;24.75;;
25153;SDS011;47555;51.038;6.280;2023-02-11T13:40:57;78.60;;;24.67;;
25153;SDS011;47555;51.038;6.280;2023-02-11T13:43:29;77.72;;;24.75;;
25153;SDS011;47555;51.038;6.280;2023-02-11T13:45:57;73.45;;;25.73;;
25153;SDS011;47555;51.038;6.280;2023-02-11T13:48:25;81.40;;;25.05;;
25153;SDS011;47555;51.038;6.280;2023-02-11T13:50:58;71.47;;;23.60;;
25153;SDS011;47555;51.038;6.280;2023-02-11T13:53:27;76.90;;;24.95;;
25153;SDS011;47555;51.038;6.280;2023-02-11T13:56:03;72.50;;;24.92;;
25153;SDS011;47555;51.038;6.280;2023-02-11T13:58:32;80.90;;;25.73;;
25153;SDS011;47555;51.038;6.280;2023-02-11T14:01:03;83.25;;;25.88;;
25153;SDS011;47555;51.038;6.280;2023-02-11T14:03:34;75.53;;;25.33;;
25153;SDS011;47555;51.038;6.280;2023-02-11T14:06:21;79.00;;;26.20;;
25153;SDS011;47555;51.038;6.280;2023-02-11T14:14:21;75.75;;;25.42;;
25153;SDS011;47555;51.038;6.280;2023-02-11T14:19:36;72.47;;;25.15;;
25153;SDS011;47555;51.038;6.280;2023-02-11T14:27:25;76.63;;;23.83;;
25153;SDS011;47555;51.038;6.280;2023-02-11T14:35:22;77.05;;;24.65;;
25153;SDS011;47555;51.038;6.280;2023-02-11T14:41:07;78.68;;;28.58;;
25153;SDS011;47555;51.038;6.280;2023-02-11T14:43:43;77.88;;;26.35;;
25153;SDS011;47555;51.038;6.280;2023-02-11T14:46:13;68.90;;;25.73;;
25153;SDS011;47555;51.038;6.280;2023-02-11T14:48:42;69.18;;;24.13;;
25153;SDS011;47555;51.038;6.280;2023-02-11T14:51:15;71.35;;;25.35;;
25153;SDS011;47555;51.038;6.280;2023-02-11T14:53:43;76.50;;;27.00;;
25153;SDS011;47555;51.038;6.280;2023-02-11T14:56:15;67.32;;;25.73;;
25153;SDS011;47555;51.038;6.280;2023-02-11T15:01:21;71.43;;;23.65;;
25153;SDS011;47555;51.038;6.280;2023-02-11T15:04:16;72.20;;;25.00;;
25153;SDS011;47555;51.038;6.280;2023-02-11T15:06:56;65.47;;;23.55;;
25153;SDS011;47555;51.038;6.280;2023-02-11T15:09:41;73.45;;;25.48;;
25153;SDS011;47555;51.038;6.280;2023-02-11T15:12:16;70.05;;;25.55;;
25153;SDS011;47555;51.038;6.280;2023-02-11T15:14:56;64.68;;;22.33;;
25153;SDS011;47555;51.038;6.280;2023-02-11T15:17:25;65.35;;;24.42;;
25153;SDS011;47555;51.038;6.280;2023-02-11T15:19:54;72.22;;;23.52;;
25153;SDS011;47555;51.038;6.280;2023-02-11T15:22:25;72.25;;;24.80;;
25153;SDS011;47555;51.038;6.280;2023-02-11T15:27:26;68.20;;;24.42;;
25153;SDS011;47555;51.038;6.280;2023-02-11T15:29:52;65.88;;;23.02;;
25153;SDS011;47555;51.038;6.280;2023-02-11T15:32:18;62.63;;;23.52;;
25153;SDS011;47555;51.038;6.280;2023-02-11T15:34:47;70.30;;;24.17;;
25153;SDS011;47555;51.038;6.280;2023-02-11T15:37:27;69.57;;;24.67;;
25153;SDS011;47555;51.038;6.280;2023-02-11T15:40:07;70.30;;;24.02;;
25153;SDS011;47555;51.038;6.280;2023-02-11T15:42:39;60.83;;;22.60;;
25153;SDS011;47555;51.038;6.280;2023-02-11T15:45:08;63.28;;;24.50;;
25153;SDS011;47555;51.038;6.280;2023-02-11T15:47:41;72.28;;;23.88;;
25153;SDS011;47555;51.038;6.280;2023-02-11T15:50:23;69.80;;;26.10;;
25153;SDS011;47555;51.038;6.280;2023-02-11T15:52:55;66.18;;;24.50;;
25153;SDS011;47555;51.038;6.280;2023-02-11T15:55:23;68.93;;;25.45;;
25153;SDS011;47555;51.038;6.280;2023-02-11T15:57:58;59.88;;;23.02;;
25153;SDS011;47555;51.038;6.280;2023-02-11T16:00:35;59.38;;;23.13;;
25153;SDS011;47555;51.038;6.280;2023-02-11T16:03:17;69.15;;;24.25;;
25153;SDS011;47555;51.038;6.280;2023-02-11T16:05:44;65.25;;;23.20;;
25153;SDS011;47555;51.038;6.280;2023-02-11T16:10:54;67.10;;;23.63;;
25153;SDS011;47555;51.038;6.280;2023-02-11T16:13:22;67.85;;;24.50;;
25153;SDS011;47555;51.038;6.280;2023-02-11T16:15:51;59.65;;;23.55;;
25153;SDS011;47555;51.038;6.280;2023-02-11T16:21:03;69.87;;;23.33;;
25153;SDS011;47555;51.038;6.280;2023-02-11T16:23:32;57.10;;;22.25;;
25153;SDS011;47555;51.038;6.280;2023-02-11T16:26:03;70.45;;;25.23;;
25153;SDS011;47555;51.038;6.280;2023-02-11T16:29:03;66.53;;;23.52;;
25153;SDS011;47555;51.038;6.280;2023-02-11T16:31:31;63.53;;;22.92;;
25153;SDS011;47555;51.038;6.280;2023-02-11T16:34:01;56.10;;;23.35;;
25153;SDS011;47555;51.038;6.280;2023-02-11T16:36:30;60.20;;;21.92;;
25153;SDS011;47555;51.038;6.280;2023-02-11T16:38:55;59.88;;;21.80;;
25153;SDS011;47555;51.038;6.280;2023-02-11T16:41:20;60.33;;;22.73;;
25153;SDS011;47555;51.038;6.280;2023-02-11T16:43:46;62.28;;;22.17;;
25153;SDS011;47555;51.038;6.280;2023-02-11T16:46:14;62.42;;;23.27;;
25153;SDS011;47555;51.038;6.280;2023-02-11T16:48:40;55.83;;;21.98;;
25153;SDS011;47555;51.038;6.280;2023-02-11T16:51:05;58.63;;;21.77;;